sensor_id;sensor_type;location;lat;lon;timestamp;pressure;altitude;pressure_sealevel;temperature;humidity
32733;BME280;11867;51.198;11.966;2023-03-26T00:00:31;99514.44;;;8.26;97.05
32733;BME280;11867;51.198;11.966;2023-03-26T00:01:34;99522.78;;;8.35;96.76
32733;BME280;11867;51.198;11.966;2023-03-26T00:02:37;99500.09;;;8.20;96.38
32733;BME280;11867;51.198;11.966;2023-03-26T00:03:42;99510.84;;;8.01;96.08
32733;BME280;11867;51.198;11.966;2023-03-26T00:04:49;99495.88;;;8.09;95.35
32733;BME280;11867;51.198;11.966;2023-03-26T00:06:00;99501.00;;;8.11;95.35
32733;BME280;11867;51.198;11.966;2023-03-26T00:07:04;99499.03;;;8.16;95.89
32733;BME280;11867;51.198;11.966;2023-03-26T00:08:06;99496.31;;;8.21;96.60
32733;BME280;11867;51.198;11.966;2023-03-26T00:09:10;99502.19;;;8.28;95.98
32733;BME280;11867;51.198;11.966;2023-03-26T00:10:14;99510.59;;;8.32;95.94
32733;BME280;11867;51.198;11.966;2023-03-26T00:11:17;99512.91;;;8.49;95.57
32733;BME280;11867;51.198;11.966;2023-03-26T00:12:19;99509.56;;;8.57;94.78
32733;BME280;11867;51.198;11.966;2023-03-26T00:13:22;99508.13;;;8.65;95.18
32733;BME280;11867;51.198;11.966;2023-03-26T00:14:24;99517.25;;;8.74;94.95
32733;BME280;11867;51.198;11.966;2023-03-26T00:15:27;99511.94;;;8.88;94.56
32733;BME280;11867;51.198;11.966;2023-03-26T00:16:30;99521.94;;;8.93;93.65
32733;BME280;11867;51.198;11.966;2023-03-26T00:17:33;99527.28;;;8.79;94.24
32733;BME280;11867;51.198;11.966;2023-03-26T00:18:35;99526.34;;;8.88;94.47
32733;BME280;11867;51.198;11.966;2023-03-26T00:19:50;99531.59;;;8.80;94.25
32733;BME280;11867;51.198;11.966;2023-03-26T00:20:54;99535.75;;;8.72;94.78
32733;BME280;11867;51.198;11.966;2023-03-26T00:21:56;99530.94;;;8.64;94.86
32733;BME280;11867;51.198;11.966;2023-03-26T00:22:58;99530.78;;;8.55;95.02
32733;BME280;11867;51.198;11.966;2023-03-26T00:24:04;99536.59;;;8.38;97.25
32733;BME280;11867;51.198;11.966;2023-03-26T00:25:07;99520.13;;;8.29;97.49
32733;BME280;11867;51.198;11.966;2023-03-26T00:26:09;99526.94;;;8.27;97.89
32733;BME280;11867;51.198;11.966;2023-03-26T00:27:11;99531.25;;;8.33;97.38
32733;BME280;11867;51.198;11.966;2023-03-26T00:28:15;99529.03;;;8.35;97.09
32733;BME280;11867;51.198;11.966;2023-03-26T00:29:17;99530.66;;;8.36;97.08
32733;BME280;11867;51.198;11.966;2023-03-26T00:30:20;99529.41;;;8.23;97.87
32733;BME280;11867;51.198;11.966;2023-03-26T00:31:22;99526.59;;;8.34;97.07
32733;BME280;11867;51.198;11.966;2023-03-26T00:32:24;99526.03;;;8.37;96.10
32733;BME280;11867;51.198;11.966;2023-03-26T00:33:28;99525.47;;;8.40;96.24
32733;BME280;11867;51.198;11.966;2023-03-26T00:34:32;99523.38;;;8.32;96.59
32733;BME280;11867;51.198;11.966;2023-03-26T00:35:36;99533.56;;;8.50;95.68
32733;BME280;11867;51.198;11.966;2023-03-26T00:36:39;99529.81;;;8.41;94.61
32733;BME280;11867;51.198;11.966;2023-03-26T00:37:42;99526.53;;;8.44;94.60
32733;BME280;11867;51.198;11.966;2023-03-26T00:38:46;99525.06;;;8.57;93.89
32733;BME280;11867;51.198;11.966;2023-03-26T00:39:48;99515.94;;;8.72;93.70
32733;BME280;11867;51.198;11.966;2023-03-26T00:40:51;99522.94;;;8.78;93.01
32733;BME280;11867;51.198;11.966;2023-03-26T00:41:52;99529.50;;;8.72;92.21
32733;BME280;11867;51.198;11.966;2023-03-26T00:42:55;99520.69;;;8.85;92.43
32733;BME280;11867;51.198;11.966;2023-03-26T00:43:58;99525.78;;;8.92;91.68
32733;BME280;11867;51.198;11.966;2023-03-26T00:45:01;99534.31;;;8.80;91.81
32733;BME280;11867;51.198;11.966;2023-03-26T00:46:03;99530.72;;;8.60;91.93
32733;BME280;11867;51.198;11.966;2023-03-26T00:47:06;99535.66;;;8.58;92.64
32733;BME280;11867;51.198;11.966;2023-03-26T00:48:08;99533.47;;;8.55;92.47
32733;BME280;11867;51.198;11.966;2023-03-26T00:49:10;99543.44;;;8.65;92.62
32733;BME280;11867;51.198;11.966;2023-03-26T00:50:15;99542.06;;;8.67;92.03
32733;BME280;11867;51.198;11.966;2023-03-26T00:51:20;99527.06;;;8.46;93.14
32733;BME280;11867;51.198;11.966;2023-03-26T00:52:22;99528.63;;;8.52;92.85
32733;BME280;11867;51.198;11.966;2023-03-26T00:53:24;99533.19;;;8.27;93.93
32733;BME280;11867;51.198;11.966;2023-03-26T00:54:26;99522.34;;;8.22;94.54
32733;BME280;11867;51.198;11.966;2023-03-26T00:55:29;99520.06;;;8.35;94.16
32733;BME280;11867;51.198;11.966;2023-03-26T00:56:30;99519.50;;;8.38;94.48
32733;BME280;11867;51.198;11.966;2023-03-26T00:57:33;99523.31;;;8.42;94.88
32733;BME280;11867;51.198;11.966;2023-03-26T00:58:37;99520.59;;;8.66;93.51
32733;BME280;11867;51.198;11.966;2023-03-26T00:59:39;99516.34;;;8.84;92.88
32733;BME280;11867;51.198;11.966;2023-03-26T01:00:46;99522.91;;;8.54;93.88
32733;BME280;11867;51.198;11.966;2023-03-26T01:01:51;99526.34;;;8.64;93.84
32733;BME280;11867;51.198;11.966;2023-03-26T01:02:55;99524.16;;;8.66;93.40
32733;BME280;11867;51.198;11.966;2023-03-26T01:04:21;99521.00;;;8.54;94.16
32733;BME280;11867;51.198;11.966;2023-03-26T01:05:41;99503.66;;;8.50;94.49
32733;BME280;11867;51.198;11.966;2023-03-26T01:06:45;99519.28;;;8.63;94.31
32733;BME280;11867;51.198;11.966;2023-03-26T01:07:47;99524.44;;;8.65;94.53
32733;BME280;11867;51.198;11.966;2023-03-26T01:08:50;99527.31;;;8.50;93.92
32733;BME280;11867;51.198;11.966;2023-03-26T01:09:57;99521.53;;;8.56;94.09
32733;BME280;11867;51.198;11.966;2023-03-26T01:11:02;99526.09;;;8.61;93.58
32733;BME280;11867;51.198;11.966;2023-03-26T01:12:09;99525.97;;;8.47;93.80
32733;BME280;11867;51.198;11.966;2023-03-26T01:13:11;99525.31;;;8.60;93.98
32733;BME280;11867;51.198;11.966;2023-03-26T01:14:16;99518.81;;;8.56;93.35
32733;BME280;11867;51.198;11.966;2023-03-26T01:15:18;99519.84;;;8.84;92.95
32733;BME280;11867;51.198;11.966;2023-03-26T01:16:25;99521.78;;;8.84;91.81
32733;BME280;11867;51.198;11.966;2023-03-26T01:17:28;99518.13;;;8.94;91.53
32733;BME280;11867;51.198;11.966;2023-03-26T01:18:36;99520.38;;;8.86;91.67
32733;BME280;11867;51.198;11.966;2023-03-26T01:19:46;99522.50;;;8.65;92.24
32733;BME280;11867;51.198;11.966;2023-03-26T01:20:54;99517.00;;;8.46;92.81
32733;BME280;11867;51.198;11.966;2023-03-26T01:22:08;99522.41;;;8.52;92.89
32733;BME280;11867;51.198;11.966;2023-03-26T01:23:14;99517.34;;;8.64;92.38
32733;BME280;11867;51.198;11.966;2023-03-26T01:24:21;99513.13;;;8.53;92.50
32733;BME280;11867;51.198;11.966;2023-03-26T01:25:27;99514.13;;;8.62;92.72
32733;BME280;11867;51.198;11.966;2023-03-26T01:26:45;99507.31;;;8.88;92.40
32733;BME280;11867;51.198;11.966;2023-03-26T01:27:54;99514.50;;;9.03;91.57
32733;BME280;11867;51.198;11.966;2023-03-26T01:28:58;99508.81;;;9.00;90.49
32733;BME280;11867;51.198;11.966;2023-03-26T01:30:10;99514.81;;;9.21;90.28
32733;BME280;11867;51.198;11.966;2023-03-26T01:31:22;99524.00;;;9.25;89.87
32733;BME280;11867;51.198;11.966;2023-03-26T01:32:41;99516.47;;;8.98;90.45
32733;BME280;11867;51.198;11.966;2023-03-26T01:33:51;99514.13;;;9.10;91.04
32733;BME280;11867;51.198;11.966;2023-03-26T01:35:04;99523.06;;;9.16;90.41
32733;BME280;11867;51.198;11.966;2023-03-26T01:36:12;99521.56;;;9.23;90.09
32733;BME280;11867;51.198;11.966;2023-03-26T01:37:20;99518.28;;;9.45;89.34
32733;BME280;11867;51.198;11.966;2023-03-26T01:38:31;99521.53;;;9.47;88.70
32733;BME280;11867;51.198;11.966;2023-03-26T01:39:39;99516.97;;;9.62;88.14
32733;BME280;11867;51.198;11.966;2023-03-26T01:40:54;99529.63;;;9.90;87.49
32733;BME280;11867;51.198;11.966;2023-03-26T01:42:01;99523.91;;;10.06;86.96
32733;BME280;11867;51.198;11.966;2023-03-26T01:43:12;99527.28;;;9.84;86.30
32733;BME280;11867;51.198;11.966;2023-03-26T01:44:22;99530.44;;;9.72;86.59
32733;BME280;11867;51.198;11.966;2023-03-26T01:45:31;99524.41;;;9.56;87.31
32733;BME280;11867;51.198;11.966;2023-03-26T01:46:34;99517.16;;;9.27;87.75
32733;BME280;11867;51.198;11.966;2023-03-26T01:47:38;99514.59;;;9.36;88.41
32733;BME280;11867;51.198;11.966;2023-03-26T01:48:42;99522.94;;;9.45;88.11
32733;BME280;11867;51.198;11.966;2023-03-26T01:49:46;99521.91;;;9.41;87.96
32733;BME280;11867;51.198;11.966;2023-03-26T01:50:48;99522.97;;;9.21;88.61
32733;BME280;11867;51.198;11.966;2023-03-26T01:51:55;99520.31;;;9.16;89.39
32733;BME280;11867;51.198;11.966;2023-03-26T01:52:56;99519.06;;;9.08;89.25
32733;BME280;11867;51.198;11.966;2023-03-26T01:54:00;99514.38;;;9.14;89.40
32733;BME280;11867;51.198;11.966;2023-03-26T01:55:07;99515.97;;;9.15;89.11
32733;BME280;11867;51.198;11.966;2023-03-26T01:56:16;99506.09;;;9.00;89.68
32733;BME280;11867;51.198;11.966;2023-03-26T01:57:27;99514.81;;;8.97;90.05
32733;BME280;11867;51.198;11.966;2023-03-26T01:58:38;99518.41;;;8.92;90.00
32733;BME280;11867;51.198;11.966;2023-03-26T02:00:00;99512.81;;;9.07;89.89
32733;BME280;11867;51.198;11.966;2023-03-26T02:01:18;99510.25;;;8.92;90.04
32733;BME280;11867;51.198;11.966;2023-03-26T02:02:29;99508.31;;;8.98;90.24
32733;BME280;11867;51.198;11.966;2023-03-26T02:03:37;99517.13;;;9.08;89.95
32733;BME280;11867;51.198;11.966;2023-03-26T02:04:48;99513.78;;;9.17;89.36
32733;BME280;11867;51.198;11.966;2023-03-26T02:05:56;99512.53;;;9.28;89.43
32733;BME280;11867;51.198;11.966;2023-03-26T02:07:03;99512.56;;;9.47;89.10
32733;BME280;11867;51.198;11.966;2023-03-26T02:08:15;99507.41;;;9.45;88.47
32733;BME280;11867;51.198;11.966;2023-03-26T02:09:24;99499.81;;;9.42;88.33
32733;BME280;11867;51.198;11.966;2023-03-26T02:10:34;99514.91;;;9.54;88.33
32733;BME280;11867;51.198;11.966;2023-03-26T02:11:37;99509.66;;;9.38;88.42
32733;BME280;11867;51.198;11.966;2023-03-26T02:12:42;99508.41;;;9.12;89.71
32733;BME280;11867;51.198;11.966;2023-03-26T02:13:45;99500.66;;;9.00;89.65
32733;BME280;11867;51.198;11.966;2023-03-26T02:14:48;99503.44;;;8.95;90.94
32733;BME280;11867;51.198;11.966;2023-03-26T02:15:55;99508.84;;;9.19;90.43
32733;BME280;11867;51.198;11.966;2023-03-26T02:16:58;99502.00;;;9.21;89.08
32733;BME280;11867;51.198;11.966;2023-03-26T02:18:01;99508.06;;;8.94;89.55
32733;BME280;11867;51.198;11.966;2023-03-26T02:19:04;99505.97;;;8.86;90.33
32733;BME280;11867;51.198;11.966;2023-03-26T02:20:08;99498.59;;;8.92;90.76
32733;BME280;11867;51.198;11.966;2023-03-26T02:21:13;99496.28;;;8.80;90.49
32733;BME280;11867;51.198;11.966;2023-03-26T02:22:15;99494.66;;;8.79;90.95
32733;BME280;11867;51.198;11.966;2023-03-26T02:23:19;99498.34;;;8.88;90.97
32733;BME280;11867;51.198;11.966;2023-03-26T02:24:21;99499.38;;;9.16;90.58
32733;BME280;11867;51.198;11.966;2023-03-26T02:25:24;99504.31;;;9.33;89.72
32733;BME280;11867;51.198;11.966;2023-03-26T02:26:28;99491.41;;;9.20;89.24
32733;BME280;11867;51.198;11.966;2023-03-26T02:27:31;99498.72;;;9.24;89.20
32733;BME280;11867;51.198;11.966;2023-03-26T02:28:34;99486.88;;;9.34;88.72
32733;BME280;11867;51.198;11.966;2023-03-26T02:29:37;99501.81;;;9.37;88.00
32733;BME280;11867;51.198;11.966;2023-03-26T02:30:40;99494.31;;;9.09;88.89
32733;BME280;11867;51.198;11.966;2023-03-26T02:31:43;99488.63;;;9.06;89.79
32733;BME280;11867;51.198;11.966;2023-03-26T02:32:45;99486.09;;;8.91;90.15
32733;BME280;11867;51.198;11.966;2023-03-26T02:33:52;99493.03;;;8.78;90.83
32733;BME280;11867;51.198;11.966;2023-03-26T02:34:55;99488.63;;;8.82;90.35
32733;BME280;11867;51.198;11.966;2023-03-26T02:35:58;99492.03;;;8.10;93.52
32733;BME280;11867;51.198;11.966;2023-03-26T02:37:02;99486.41;;;8.31;93.89
32733;BME280;11867;51.198;11.966;2023-03-26T02:38:04;99493.94;;;8.44;93.27
32733;BME280;11867;51.198;11.966;2023-03-26T02:39:07;99485.16;;;8.52;92.96
32733;BME280;11867;51.198;11.966;2023-03-26T02:40:11;99493.84;;;8.54;92.74
32733;BME280;11867;51.198;11.966;2023-03-26T02:41:14;99493.66;;;8.69;92.80
32733;BME280;11867;51.198;11.966;2023-03-26T02:42:18;99502.91;;;8.93;91.75
32733;BME280;11867;51.198;11.966;2023-03-26T02:43:19;99494.59;;;9.08;90.54
32733;BME280;11867;51.198;11.966;2023-03-26T02:44:22;99500.31;;;9.06;89.93
32733;BME280;11867;51.198;11.966;2023-03-26T02:45:24;99499.13;;;9.13;89.54
32733;BME280;11867;51.198;11.966;2023-03-26T02:46:26;99502.28;;;9.20;89.11
32733;BME280;11867;51.198;11.966;2023-03-26T02:47:28;99501.22;;;9.21;88.57
32733;BME280;11867;51.198;11.966;2023-03-26T02:48:31;99501.13;;;9.26;88.67
32733;BME280;11867;51.198;11.966;2023-03-26T02:49:34;99500.78;;;9.33;88.21
32733;BME280;11867;51.198;11.966;2023-03-26T02:50:37;99495.56;;;9.36;88.04
32733;BME280;11867;51.198;11.966;2023-03-26T02:51:39;99493.72;;;9.50;87.74
32733;BME280;11867;51.198;11.966;2023-03-26T02:52:42;99498.78;;;9.38;87.48
32733;BME280;11867;51.198;11.966;2023-03-26T02:53:43;99492.53;;;9.38;87.84
32733;BME280;11867;51.198;11.966;2023-03-26T02:54:46;99491.13;;;9.21;88.10
32733;BME280;11867;51.198;11.966;2023-03-26T02:55:48;99487.94;;;8.95;88.79
32733;BME280;11867;51.198;11.966;2023-03-26T02:56:50;99491.78;;;9.13;88.97
32733;BME280;11867;51.198;11.966;2023-03-26T02:57:54;99501.13;;;8.83;89.47
32733;BME280;11867;51.198;11.966;2023-03-26T02:58:57;99493.03;;;8.78;90.31
32733;BME280;11867;51.198;11.966;2023-03-26T02:59:59;99494.44;;;8.99;89.75
32733;BME280;11867;51.198;11.966;2023-03-26T03:01:05;99496.56;;;8.54;90.75
32733;BME280;11867;51.198;11.966;2023-03-26T03:02:07;99498.22;;;8.74;90.22
32733;BME280;11867;51.198;11.966;2023-03-26T03:03:09;99500.25;;;8.87;89.88
32733;BME280;11867;51.198;11.966;2023-03-26T03:04:11;99489.09;;;8.65;89.73
32733;BME280;11867;51.198;11.966;2023-03-26T03:05:14;99494.88;;;8.82;89.74
32733;BME280;11867;51.198;11.966;2023-03-26T03:06:16;99496.09;;;8.71;89.62
32733;BME280;11867;51.198;11.966;2023-03-26T03:07:19;99489.09;;;8.36;91.56
32733;BME280;11867;51.198;11.966;2023-03-26T03:08:22;99487.72;;;8.43;91.51
32733;BME280;11867;51.198;11.966;2023-03-26T03:09:24;99490.88;;;8.51;91.59
32733;BME280;11867;51.198;11.966;2023-03-26T03:10:27;99489.50;;;8.53;90.78
32733;BME280;11867;51.198;11.966;2023-03-26T03:11:33;99486.31;;;8.70;89.55
32733;BME280;11867;51.198;11.966;2023-03-26T03:12:35;99487.19;;;8.65;89.71
32733;BME280;11867;51.198;11.966;2023-03-26T03:13:39;99483.94;;;8.63;89.75
32733;BME280;11867;51.198;11.966;2023-03-26T03:14:40;99481.06;;;8.55;90.05
32733;BME280;11867;51.198;11.966;2023-03-26T03:15:43;99487.38;;;8.50;90.22
32733;BME280;11867;51.198;11.966;2023-03-26T03:16:45;99494.25;;;8.37;90.28
32733;BME280;11867;51.198;11.966;2023-03-26T03:17:47;99491.81;;;8.36;90.39
32733;BME280;11867;51.198;11.966;2023-03-26T03:18:49;99484.19;;;8.38;90.45
32733;BME280;11867;51.198;11.966;2023-03-26T03:19:58;99489.66;;;8.33;90.32
32733;BME280;11867;51.198;11.966;2023-03-26T03:21:00;99484.06;;;8.24;90.70
32733;BME280;11867;51.198;11.966;2023-03-26T03:22:03;99490.13;;;8.45;90.46
32733;BME280;11867;51.198;11.966;2023-03-26T03:23:04;99490.44;;;8.43;89.78
32733;BME280;11867;51.198;11.966;2023-03-26T03:24:07;99494.00;;;8.34;90.19
32733;BME280;11867;51.198;11.966;2023-03-26T03:25:09;99488.00;;;8.37;90.46
32733;BME280;11867;51.198;11.966;2023-03-26T03:26:16;99487.13;;;8.46;89.96
32733;BME280;11867;51.198;11.966;2023-03-26T03:27:18;99490.72;;;8.42;89.89
32733;BME280;11867;51.198;11.966;2023-03-26T03:28:21;99475.00;;;8.34;90.32
32733;BME280;11867;51.198;11.966;2023-03-26T03:29:25;99479.38;;;8.59;89.74
32733;BME280;11867;51.198;11.966;2023-03-26T03:30:27;99488.31;;;8.64;89.17
32733;BME280;11867;51.198;11.966;2023-03-26T03:31:29;99489.03;;;8.46;89.35
32733;BME280;11867;51.198;11.966;2023-03-26T03:32:32;99488.41;;;8.54;89.39
32733;BME280;11867;51.198;11.966;2023-03-26T03:33:33;99478.75;;;8.38;89.83
32733;BME280;11867;51.198;11.966;2023-03-26T03:34:36;99482.28;;;8.43;89.56
32733;BME280;11867;51.198;11.966;2023-03-26T03:35:38;99485.16;;;8.52;89.38
32733;BME280;11867;51.198;11.966;2023-03-26T03:36:43;99479.38;;;8.59;88.96
32733;BME280;11867;51.198;11.966;2023-03-26T03:37:49;99481.34;;;8.53;89.01
32733;BME280;11867;51.198;11.966;2023-03-26T03:38:50;99476.72;;;8.54;88.61
32733;BME280;11867;51.198;11.966;2023-03-26T03:39:53;99485.44;;;8.51;88.92
32733;BME280;11867;51.198;11.966;2023-03-26T03:40:54;99483.91;;;8.39;89.32
32733;BME280;11867;51.198;11.966;2023-03-26T03:41:57;99482.00;;;8.40;89.63
32733;BME280;11867;51.198;11.966;2023-03-26T03:42:58;99482.09;;;8.29;89.83
32733;BME280;11867;51.198;11.966;2023-03-26T03:44:01;99472.97;;;8.50;89.80
32733;BME280;11867;51.198;11.966;2023-03-26T03:45:05;99477.88;;;8.72;89.29
32733;BME280;11867;51.198;11.966;2023-03-26T03:46:07;99479.97;;;8.80;88.07
32733;BME280;11867;51.198;11.966;2023-03-26T03:47:09;99472.81;;;8.89;87.94
32733;BME280;11867;51.198;11.966;2023-03-26T03:48:14;99476.31;;;8.65;88.28
32733;BME280;11867;51.198;11.966;2023-03-26T03:49:15;99476.03;;;8.67;88.87
32733;BME280;11867;51.198;11.966;2023-03-26T03:50:18;99484.38;;;8.52;88.88
32733;BME280;11867;51.198;11.966;2023-03-26T03:51:20;99484.94;;;8.48;89.65
32733;BME280;11867;51.198;11.966;2023-03-26T03:52:22;99478.16;;;8.46;89.74
32733;BME280;11867;51.198;11.966;2023-03-26T03:53:24;99480.66;;;8.66;89.04
32733;BME280;11867;51.198;11.966;2023-03-26T03:54:27;99477.06;;;8.71;88.81
32733;BME280;11867;51.198;11.966;2023-03-26T03:55:29;99467.81;;;8.72;88.57
32733;BME280;11867;51.198;11.966;2023-03-26T03:56:31;99479.72;;;8.76;88.43
32733;BME280;11867;51.198;11.966;2023-03-26T03:57:33;99478.88;;;8.81;88.07
32733;BME280;11867;51.198;11.966;2023-03-26T03:58:36;99477.25;;;8.80;88.25
32733;BME280;11867;51.198;11.966;2023-03-26T03:59:37;99487.34;;;8.98;87.81
32733;BME280;11867;51.198;11.966;2023-03-26T04:00:49;99482.94;;;9.02;87.28
32733;BME280;11867;51.198;11.966;2023-03-26T04:01:51;99483.72;;;9.08;87.33
32733;BME280;11867;51.198;11.966;2023-03-26T04:02:54;99476.94;;;9.05;86.79
32733;BME280;11867;51.198;11.966;2023-03-26T04:03:57;99476.97;;;8.81;87.37
32733;BME280;11867;51.198;11.966;2023-03-26T04:05:00;99483.59;;;8.70;88.49
32733;BME280;11867;51.198;11.966;2023-03-26T04:06:01;99486.94;;;8.62;88.92
32733;BME280;11867;51.198;11.966;2023-03-26T04:07:07;99483.25;;;8.53;89.13
32733;BME280;11867;51.198;11.966;2023-03-26T04:08:08;99485.59;;;8.64;88.80
32733;BME280;11867;51.198;11.966;2023-03-26T04:09:11;99483.53;;;8.51;89.25
32733;BME280;11867;51.198;11.966;2023-03-26T04:10:14;99481.88;;;8.55;89.50
32733;BME280;11867;51.198;11.966;2023-03-26T04:11:16;99478.41;;;8.50;89.66
32733;BME280;11867;51.198;11.966;2023-03-26T04:12:18;99484.22;;;8.62;89.19
32733;BME280;11867;51.198;11.966;2023-03-26T04:13:21;99492.22;;;8.53;89.98
32733;BME280;11867;51.198;11.966;2023-03-26T04:14:22;99487.13;;;8.46;90.43
32733;BME280;11867;51.198;11.966;2023-03-26T04:15:25;99481.44;;;8.43;89.84
32733;BME280;11867;51.198;11.966;2023-03-26T04:16:28;99480.66;;;8.42;90.01
32733;BME280;11867;51.198;11.966;2023-03-26T04:17:31;99478.25;;;8.36;90.00
32733;BME280;11867;51.198;11.966;2023-03-26T04:18:32;99477.22;;;8.26;90.83
32733;BME280;11867;51.198;11.966;2023-03-26T04:19:36;99477.22;;;8.26;90.43
32733;BME280;11867;51.198;11.966;2023-03-26T04:20:39;99480.47;;;8.28;90.92
32733;BME280;11867;51.198;11.966;2023-03-26T04:21:47;99476.91;;;8.33;90.96
32733;BME280;11867;51.198;11.966;2023-03-26T04:22:49;99471.38;;;8.14;90.85
32733;BME280;11867;51.198;11.966;2023-03-26T04:23:53;99470.28;;;8.15;91.18
32733;BME280;11867;51.198;11.966;2023-03-26T04:24:54;99464.47;;;8.27;91.00
32733;BME280;11867;51.198;11.966;2023-03-26T04:25:59;99466.88;;;8.28;90.21
32733;BME280;11867;51.198;11.966;2023-03-26T04:27:05;99465.38;;;8.46;90.12
32733;BME280;11867;51.198;11.966;2023-03-26T04:28:24;99473.78;;;8.50;89.42
32733;BME280;11867;51.198;11.966;2023-03-26T04:29:29;99466.50;;;8.40;89.35
32733;BME280;11867;51.198;11.966;2023-03-26T04:30:38;99458.72;;;8.34;89.72
32733;BME280;11867;51.198;11.966;2023-03-26T04:31:44;99466.78;;;8.44;90.05
32733;BME280;11867;51.198;11.966;2023-03-26T04:32:47;99460.53;;;8.43;89.55
32733;BME280;11867;51.198;11.966;2023-03-26T04:33:50;99461.81;;;8.51;89.13
32733;BME280;11867;51.198;11.966;2023-03-26T04:34:55;99467.53;;;8.50;88.78
32733;BME280;11867;51.198;11.966;2023-03-26T04:36:00;99471.06;;;8.50;88.98
32733;BME280;11867;51.198;11.966;2023-03-26T04:37:04;99468.41;;;8.40;89.06
32733;BME280;11867;51.198;11.966;2023-03-26T04:38:06;99462.75;;;8.36;89.39
32733;BME280;11867;51.198;11.966;2023-03-26T04:39:10;99470.09;;;8.36;89.00
32733;BME280;11867;51.198;11.966;2023-03-26T04:40:15;99468.97;;;8.42;89.04
32733;BME280;11867;51.198;11.966;2023-03-26T04:41:20;99467.09;;;8.37;88.82
32733;BME280;11867;51.198;11.966;2023-03-26T04:42:26;99469.09;;;8.26;88.91
32733;BME280;11867;51.198;11.966;2023-03-26T04:43:28;99475.97;;;8.19;89.84
32733;BME280;11867;51.198;11.966;2023-03-26T04:44:31;99462.91;;;8.21;89.50
32733;BME280;11867;51.198;11.966;2023-03-26T04:45:35;99471.25;;;8.29;89.56
32733;BME280;11867;51.198;11.966;2023-03-26T04:46:37;99458.84;;;8.18;89.69
32733;BME280;11867;51.198;11.966;2023-03-26T04:47:45;99463.19;;;8.19;89.82
32733;BME280;11867;51.198;11.966;2023-03-26T04:48:49;99473.53;;;8.17;89.98
32733;BME280;11867;51.198;11.966;2023-03-26T04:49:51;99466.94;;;8.23;89.50
32733;BME280;11867;51.198;11.966;2023-03-26T04:50:53;99467.63;;;8.39;88.75
32733;BME280;11867;51.198;11.966;2023-03-26T04:51:55;99465.19;;;8.38;88.71
32733;BME280;11867;51.198;11.966;2023-03-26T04:52:58;99462.47;;;8.38;89.00
32733;BME280;11867;51.198;11.966;2023-03-26T04:54:00;99461.34;;;8.44;88.28
32733;BME280;11867;51.198;11.966;2023-03-26T04:55:06;99461.66;;;8.37;87.92
32733;BME280;11867;51.198;11.966;2023-03-26T04:56:27;99458.13;;;8.37;88.28
32733;BME280;11867;51.198;11.966;2023-03-26T04:57:34;99469.50;;;8.44;88.37
32733;BME280;11867;51.198;11.966;2023-03-26T04:58:38;99465.53;;;8.60;87.89
32733;BME280;11867;51.198;11.966;2023-03-26T04:59:40;99461.44;;;8.58;87.40
32733;BME280;11867;51.198;11.966;2023-03-26T05:00:43;99468.69;;;8.38;87.70
32733;BME280;11867;51.198;11.966;2023-03-26T05:01:47;99454.16;;;8.29;88.18
32733;BME280;11867;51.198;11.966;2023-03-26T05:02:50;99456.72;;;8.15;88.89
32733;BME280;11867;51.198;11.966;2023-03-26T05:03:56;99460.66;;;8.28;88.67
32733;BME280;11867;51.198;11.966;2023-03-26T05:04:58;99458.22;;;8.26;88.99
32733;BME280;11867;51.198;11.966;2023-03-26T05:06:03;99458.47;;;8.30;89.16
32733;BME280;11867;51.198;11.966;2023-03-26T05:07:05;99456.09;;;8.23;88.69
32733;BME280;11867;51.198;11.966;2023-03-26T05:08:09;99452.47;;;8.33;88.54
32733;BME280;11867;51.198;11.966;2023-03-26T05:09:11;99451.59;;;8.38;87.98
32733;BME280;11867;51.198;11.966;2023-03-26T05:10:15;99454.34;;;8.33;88.23
32733;BME280;11867;51.198;11.966;2023-03-26T05:11:17;99450.66;;;8.53;87.64
32733;BME280;11867;51.198;11.966;2023-03-26T05:12:19;99447.25;;;8.37;87.62
32733;BME280;11867;51.198;11.966;2023-03-26T05:13:21;99446.22;;;8.33;87.95
32733;BME280;11867;51.198;11.966;2023-03-26T05:14:24;99455.66;;;8.40;88.02
32733;BME280;11867;51.198;11.966;2023-03-26T05:15:26;99461.66;;;8.37;87.59
32733;BME280;11867;51.198;11.966;2023-03-26T05:16:28;99458.94;;;8.37;88.31
32733;BME280;11867;51.198;11.966;2023-03-26T05:17:32;99459.22;;;8.36;88.06
32733;BME280;11867;51.198;11.966;2023-03-26T05:18:36;99458.53;;;8.25;88.89
32733;BME280;11867;51.198;11.966;2023-03-26T05:19:38;99460.75;;;8.18;88.89
32733;BME280;11867;51.198;11.966;2023-03-26T05:20:42;99451.81;;;8.17;88.86
32733;BME280;11867;51.198;11.966;2023-03-26T05:21:44;99450.22;;;8.11;89.19
32733;BME280;11867;51.198;11.966;2023-03-26T05:22:47;99461.34;;;8.15;88.77
32733;BME280;11867;51.198;11.966;2023-03-26T05:23:49;99455.38;;;8.13;89.39
32733;BME280;11867;51.198;11.966;2023-03-26T05:24:51;99459.44;;;8.15;90.06
32733;BME280;11867;51.198;11.966;2023-03-26T05:25:53;99453.41;;;8.18;89.33
32733;BME280;11867;51.198;11.966;2023-03-26T05:26:56;99460.63;;;8.33;89.09
32733;BME280;11867;51.198;11.966;2023-03-26T05:27:58;99461.63;;;8.42;88.67
32733;BME280;11867;51.198;11.966;2023-03-26T05:29:01;99454.94;;;8.29;88.36
32733;BME280;11867;51.198;11.966;2023-03-26T05:30:05;99444.78;;;8.40;88.58
32733;BME280;11867;51.198;11.966;2023-03-26T05:31:08;99453.81;;;8.36;88.75
32733;BME280;11867;51.198;11.966;2023-03-26T05:32:10;99454.34;;;8.33;88.62
32733;BME280;11867;51.198;11.966;2023-03-26T05:33:12;99454.28;;;8.43;88.80
32733;BME280;11867;51.198;11.966;2023-03-26T05:34:15;99455.13;;;8.43;87.86
32733;BME280;11867;51.198;11.966;2023-03-26T05:35:18;99440.75;;;8.38;88.17
32733;BME280;11867;51.198;11.966;2023-03-26T05:36:23;99459.09;;;8.22;88.89
32733;BME280;11867;51.198;11.966;2023-03-26T05:37:27;99456.84;;;8.29;88.76
32733;BME280;11867;51.198;11.966;2023-03-26T05:38:31;99455.47;;;8.32;88.78
32733;BME280;11867;51.198;11.966;2023-03-26T05:39:34;99449.41;;;8.40;88.28
32733;BME280;11867;51.198;11.966;2023-03-26T05:40:36;99451.59;;;8.38;88.46